createdAt,value
2023-03-05T00:00:47.576Z,7.59
2023-03-05T00:03:14.286Z,7.58
2023-03-05T00:05:44.515Z,7.20
2023-03-05T00:08:11.220Z,7.52
2023-03-05T00:10:40.508Z,7.51
2023-03-05T00:13:15.342Z,7.44
2023-03-05T00:15:43.061Z,7.23
2023-03-05T00:18:15.674Z,7.30
2023-03-05T00:20:46.005Z,7.24
2023-03-05T00:23:15.086Z,7.26
2023-03-05T00:25:41.787Z,7.39
2023-03-05T00:28:14.680Z,7.51
2023-03-05T00:30:41.894Z,7.34
2023-03-05T00:33:11.039Z,7.49
2023-03-05T00:35:46.110Z,7.05
2023-03-05T00:38:17.998Z,7.68
2023-03-05T00:41:04.059Z,7.41
2023-03-05T00:43:41.265Z,7.62
2023-03-05T00:46:10.933Z,7.27
2023-03-05T00:48:49.120Z,7.77
2023-03-05T00:51:25.607Z,7.49
2023-03-05T00:53:52.752Z,7.73
2023-03-05T00:56:21.859Z,7.86
2023-03-05T00:58:53.597Z,7.77
2023-03-05T01:01:20.273Z,7.85
2023-03-05T01:03:52.558Z,7.90
2023-03-05T01:06:19.554Z,8.06
2023-03-05T01:08:46.292Z,7.73
2023-03-05T01:11:15.950Z,8.05
2023-03-05T01:13:42.743Z,8.16
2023-03-05T01:16:16.713Z,8.04
2023-03-05T01:18:43.367Z,8.10
2023-03-05T01:21:10.492Z,7.86
2023-03-05T01:23:37.616Z,8.02
2023-03-05T01:26:09.498Z,7.82
2023-03-05T01:28:40.127Z,8.00
2023-03-05T01:31:11.127Z,7.76
2023-03-05T01:33:40.812Z,8.00
2023-03-05T01:36:15.121Z,7.73
2023-03-05T01:38:46.802Z,7.96
2023-03-05T01:41:16.433Z,8.09
2023-03-05T01:43:44.550Z,8.10
2023-03-05T01:46:54.906Z,8.11
2023-03-05T01:49:37.899Z,8.11
2023-03-05T01:52:18.219Z,8.19
2023-03-05T01:54:59.268Z,8.31
2023-03-05T01:57:40.777Z,8.04
2023-03-05T02:00:15.992Z,8.11
2023-03-05T02:02:55.642Z,8.04
2023-03-05T02:05:43.404Z,8.22
2023-03-05T02:08:13.028Z,7.65
2023-03-05T02:10:48.041Z,7.80
2023-03-05T02:13:21.478Z,8.09
2023-03-05T02:15:55.832Z,7.53
2023-03-05T02:18:43.202Z,8.19
2023-03-05T02:21:14.015Z,8.12
2023-03-05T02:23:52.499Z,7.97
2023-03-05T02:26:21.438Z,7.85
2023-03-05T02:28:59.625Z,7.72
2023-03-05T02:31:34.024Z,7.61
2023-03-05T02:34:01.157Z,7.43
2023-03-05T02:36:40.451Z,6.62
2023-03-05T02:39:24.103Z,7.27
2023-03-05T02:42:00.178Z,7.27
2023-03-05T02:44:29.951Z,7.05
2023-03-05T02:50:00.979Z,7.30
2023-03-05T02:52:45.910Z,7.16
2023-03-05T02:55:28.507Z,7.21
2023-03-05T02:58:01.584Z,7.03
2023-03-05T03:00:33.335Z,6.88
2023-03-05T03:03:18.606Z,6.99
2023-03-05T03:05:45.183Z,6.96
2023-03-05T03:08:23.974Z,7.11
2023-03-05T03:10:56.970Z,6.50
2023-03-05T03:13:29.850Z,6.80
2023-03-05T03:16:11.364Z,6.83
2023-03-05T03:18:52.128Z,6.97
2023-03-05T03:21:24.371Z,6.78
2023-03-05T03:24:10.622Z,6.33
2023-03-05T03:26:37.962Z,6.70
2023-03-05T03:29:18.154Z,6.56
2023-03-05T03:31:52.708Z,6.53
2023-03-05T03:34:39.641Z,6.68
2023-03-05T03:37:07.348Z,6.31
2023-03-05T03:39:45.078Z,6.44
2023-03-05T03:42:20.567Z,6.33
2023-03-05T03:44:50.322Z,6.56
2023-03-05T03:47:17.552Z,6.68
2023-03-05T03:49:54.838Z,6.61
2023-03-05T03:52:31.854Z,6.34
2023-03-05T03:55:08.539Z,6.52
2023-03-05T03:57:47.424Z,6.50
2023-03-05T04:00:22.995Z,6.32
2023-03-05T04:03:04.738Z,6.44
2023-03-05T04:05:39.408Z,6.51
2023-03-05T04:08:14.248Z,6.43
2023-03-05T04:10:40.972Z,6.26
2023-03-05T04:13:09.098Z,6.07
2023-03-05T04:15:48.052Z,6.07
2023-03-05T04:18:18.825Z,6.44
2023-03-05T04:20:48.587Z,6.06
2023-03-05T04:23:28.921Z,6.18
2023-03-05T04:26:18.061Z,6.29
2023-03-05T04:31:25.122Z,6.39
2023-03-05T04:33:51.920Z,6.40
2023-03-05T04:36:18.481Z,5.92
2023-03-05T04:38:45.289Z,6.28
2023-03-05T04:41:12.105Z,5.92
2023-03-05T04:43:40.064Z,6.22
2023-03-05T04:46:13.068Z,6.38
2023-03-05T04:48:39.704Z,6.04
2023-03-05T04:51:06.804Z,6.30
2023-03-05T04:53:33.592Z,6.08
2023-03-05T04:56:02.355Z,6.46
2023-03-05T04:58:34.781Z,6.45
2023-03-05T05:01:11.755Z,6.41
2023-03-05T05:03:47.604Z,6.47
2023-03-05T05:06:24.460Z,6.54
2023-03-05T05:11:34.478Z,6.55
2023-03-05T05:14:11.504Z,6.70
2023-03-05T05:16:41.675Z,6.68
2023-03-05T05:19:11.075Z,6.46
2023-03-05T05:21:38.217Z,6.71
2023-03-05T05:24:07.778Z,5.96
2023-03-05T05:26:40.439Z,6.79
2023-03-05T05:29:18.129Z,5.65
2023-03-05T05:31:51.052Z,6.53
2023-03-05T05:34:23.722Z,6.25
2023-03-05T05:36:54.043Z,6.37
2023-03-05T05:39:23.771Z,6.70
2023-03-05T05:41:51.855Z,6.49
2023-03-05T05:44:24.145Z,6.49
2023-03-05T05:46:50.838Z,6.44
2023-03-05T05:49:17.706Z,6.41
2023-03-05T05:51:46.631Z,5.96
2023-03-05T05:54:16.865Z,6.31
2023-03-05T05:56:46.927Z,6.49
2023-03-05T05:59:20.995Z,6.58
2023-03-05T06:01:53.983Z,6.47
2023-03-05T06:04:20.793Z,6.31
2023-03-05T06:06:50.311Z,6.48
2023-03-05T06:09:27.081Z,6.26
2023-03-05T06:11:53.761Z,6.32
2023-03-05T06:14:30.668Z,6.05
2023-03-05T06:17:03.225Z,6.25
2023-03-05T06:19:30.462Z,6.14
2023-03-05T06:21:57.926Z,6.05
2023-03-05T06:24:46.992Z,6.16
2023-03-05T06:27:17.763Z,6.26
2023-03-05T06:29:47.022Z,6.06
2023-03-05T06:32:23.050Z,6.43
2023-03-05T06:34:50.576Z,6.52
2023-03-05T06:37:21.176Z,6.38
2023-03-05T06:39:48.050Z,6.28
2023-03-05T06:42:19.376Z,6.77
2023-03-05T06:44:47.979Z,6.71
2023-03-05T06:47:15.050Z,6.69
2023-03-05T06:49:45.403Z,6.49
2023-03-05T06:52:12.986Z,6.68
2023-03-05T06:54:42.575Z,6.36
2023-03-05T06:57:13.786Z,6.72
2023-03-05T06:59:49.162Z,6.34
2023-03-05T07:02:21.005Z,6.80
2023-03-05T07:04:47.622Z,6.95
2023-03-05T07:07:23.063Z,6.66
2023-03-05T07:09:50.503Z,7.11
2023-03-05T07:12:17.222Z,6.70
2023-03-05T07:14:55.442Z,7.17
2023-03-05T07:17:25.199Z,7.40
2023-03-05T07:19:51.835Z,7.48
2023-03-05T07:22:19.219Z,7.53
2023-03-05T07:24:50.949Z,7.14
2023-03-05T07:27:19.214Z,7.29
2023-03-05T07:29:45.853Z,7.80
2023-03-05T07:32:15.426Z,7.78
2023-03-05T07:34:42.009Z,7.73
2023-03-05T07:37:11.289Z,7.73
2023-03-05T07:39:38.035Z,7.78
2023-03-05T07:42:08.835Z,8.09
2023-03-05T07:44:40.687Z,8.21
2023-03-05T07:47:07.472Z,8.26
2023-03-05T07:49:35.562Z,8.45
2023-03-05T07:52:02.244Z,8.41
2023-03-05T07:54:28.918Z,8.47
2023-03-05T07:56:58.430Z,8.74
2023-03-05T07:59:24.979Z,8.82
2023-03-05T08:01:59.077Z,8.84
2023-03-05T08:04:25.964Z,8.90
2023-03-05T08:07:39.763Z,8.97
2023-03-05T08:10:07.455Z,9.10
2023-03-05T08:12:41.981Z,8.80
2023-03-05T08:15:09.484Z,9.62
2023-03-05T08:17:39.929Z,9.29
2023-03-05T08:20:18.086Z,9.34
2023-03-05T08:22:53.762Z,9.43
2023-03-05T08:25:23.012Z,9.46
2023-03-05T08:27:52.647Z,9.49
2023-03-05T08:30:35.272Z,9.55
2023-03-05T08:33:06.822Z,9.29
2023-03-05T08:35:38.795Z,9.27
2023-03-05T08:38:05.624Z,9.61
2023-03-05T08:40:33.218Z,9.54
2023-03-05T08:43:01.648Z,9.75
2023-03-05T08:45:29.108Z,9.66
2023-03-05T08:48:07.496Z,9.74
2023-03-05T08:50:40.652Z,9.87
2023-03-05T08:53:32.615Z,9.53
2023-03-05T08:55:59.807Z,9.90
2023-03-05T08:58:27.104Z,10.17
2023-03-05T09:00:57.254Z,10.30
2023-03-05T09:03:25.986Z,10.25
2023-03-05T09:06:08.002Z,10.52
2023-03-05T09:08:39.717Z,10.62
2023-03-05T09:11:19.647Z,10.91
2023-03-05T09:13:47.739Z,10.95
2023-03-05T09:16:17.434Z,10.55
2023-03-05T09:18:44.578Z,11.06
2023-03-05T09:21:14.477Z,11.22
2023-03-05T09:23:42.047Z,11.32
2023-03-05T09:26:12.188Z,11.43
2023-03-05T09:28:53.566Z,11.40
2023-03-05T09:31:23.388Z,11.60
2023-03-05T09:34:02.350Z,11.48
2023-03-05T09:36:34.077Z,12.07
2023-03-05T09:39:10.006Z,12.43
2023-03-05T09:42:10.212Z,12.47
2023-03-05T09:44:45.376Z,12.30
2023-03-05T09:47:30.699Z,12.79
2023-03-05T09:50:35.586Z,12.52
2023-03-05T09:53:23.569Z,12.85
2023-03-05T09:55:55.325Z,12.77
2023-03-05T09:58:49.464Z,12.70
2023-03-05T10:01:22.473Z,12.87
2023-03-05T10:04:18.881Z,12.95
2023-03-05T10:07:03.175Z,13.09
2023-03-05T10:09:58.198Z,13.28
2023-03-05T10:12:41.852Z,13.30
2023-03-05T10:15:54.592Z,13.33
2023-03-05T10:18:50.867Z,13.28
2023-03-05T10:21:40.215Z,13.75
2023-03-05T10:24:31.030Z,13.45
2023-03-05T10:27:40.634Z,13.63
2023-03-05T10:30:30.392Z,13.34
2023-03-05T10:33:07.847Z,14.02
2023-03-05T10:36:03.729Z,13.92
2023-03-05T10:38:42.070Z,14.12
2023-03-05T10:41:53.229Z,14.26
2023-03-05T10:44:44.805Z,14.28
2023-03-05T10:47:20.752Z,14.50
2023-03-05T10:49:59.563Z,14.71
2023-03-05T10:52:35.562Z,14.78
2023-03-05T10:55:13.459Z,15.02
2023-03-05T10:57:40.672Z,14.71
2023-03-05T11:00:31.379Z,14.94
2023-03-05T11:03:15.116Z,14.64
2023-03-05T11:06:01.112Z,13.89
2023-03-05T11:08:36.325Z,14.68
2023-03-05T11:11:20.597Z,14.67
2023-03-05T11:13:54.164Z,15.03
2023-03-05T11:16:32.629Z,15.36
2023-03-05T11:19:18.943Z,15.00
2023-03-05T11:22:05.266Z,15.09
2023-03-05T11:24:31.810Z,15.08
2023-03-05T11:27:07.809Z,15.04
2023-03-05T11:29:37.011Z,15.25
2023-03-05T11:32:32.071Z,15.43
2023-03-05T11:35:01.770Z,15.29
2023-03-05T11:37:42.311Z,15.52
2023-03-05T11:40:28.316Z,15.49
2023-03-05T11:42:58.621Z,15.39
2023-03-05T11:45:34.147Z,15.13
2023-03-05T11:48:18.860Z,15.41
2023-03-05T11:50:53.631Z,15.16
2023-03-05T11:53:25.804Z,14.78
2023-03-05T11:56:07.881Z,14.72
2023-03-05T11:58:40.032Z,14.36
2023-03-05T12:01:27.718Z,14.18
2023-03-05T12:03:55.869Z,14.14
2023-03-05T12:07:06.983Z,14.46
2023-03-05T12:09:41.054Z,14.27
2023-03-05T12:12:36.078Z,14.61
2023-03-05T12:18:30.247Z,14.20
2023-03-05T12:21:12.135Z,14.59
2023-03-05T12:24:05.956Z,14.26
2023-03-05T12:27:33.958Z,14.01
2023-03-05T12:30:18.461Z,13.89
2023-03-05T12:33:09.412Z,13.90
2023-03-05T12:35:41.062Z,14.00
2023-03-05T12:38:33.004Z,14.41
2023-03-05T12:41:44.434Z,14.47
2023-03-05T12:44:30.008Z,13.99
2023-03-05T12:47:11.896Z,14.25
2023-03-05T12:49:39.656Z,14.01
2023-03-05T12:52:28.612Z,13.83
2023-03-05T12:55:33.760Z,13.72
2023-03-05T12:58:07.241Z,14.01
2023-03-05T13:00:57.911Z,13.89
2023-03-05T13:03:30.708Z,13.69
2023-03-05T13:06:01.039Z,13.38
2023-03-05T13:08:34.327Z,13.65
2023-03-05T13:11:05.056Z,12.32
2023-03-05T13:13:53.395Z,13.87
2023-03-05T13:16:29.293Z,14.08
2023-03-05T13:19:02.052Z,14.08
2023-03-05T13:21:33.176Z,13.77
2023-03-05T13:24:02.110Z,13.01
2023-03-05T13:26:45.206Z,13.19
2023-03-05T13:29:20.930Z,13.72
2023-03-05T13:32:30.271Z,13.32
2023-03-05T13:35:03.022Z,13.78
2023-03-05T13:37:36.886Z,13.69
2023-03-05T13:40:19.536Z,13.63
2023-03-05T13:43:19.928Z,13.65
2023-03-05T13:45:54.978Z,13.55
2023-03-05T13:48:34.407Z,13.83
2023-03-05T13:51:01.014Z,13.94
2023-03-05T13:53:32.056Z,13.20
2023-03-05T13:56:01.422Z,13.77
2023-03-05T13:58:44.505Z,14.07
2023-03-05T14:01:18.338Z,13.93
2023-03-05T14:03:53.503Z,13.95
2023-03-05T14:06:27.671Z,13.59
2023-03-05T14:09:22.688Z,13.24
2023-03-05T14:12:20.132Z,13.23
2023-03-05T14:15:10.224Z,13.98
2023-03-05T14:17:45.988Z,13.66
2023-03-05T14:20:31.839Z,13.85
2023-03-05T14:23:00.455Z,13.74
2023-03-05T14:25:27.088Z,13.51
2023-03-05T14:27:58.436Z,14.04
2023-03-05T14:30:30.874Z,13.52
2023-03-05T14:33:04.729Z,13.29
2023-03-05T14:35:38.140Z,13.68
2023-03-05T14:38:13.667Z,12.83
2023-03-05T14:40:46.198Z,13.81
2023-03-05T14:43:14.926Z,14.07
2023-03-05T14:45:47.969Z,13.73
2023-03-05T14:48:17.683Z,13.83
2023-03-05T14:51:01.252Z,14.14
2023-03-05T14:53:50.955Z,14.26
2023-03-05T14:56:23.868Z,13.41
2023-03-05T14:58:58.596Z,13.38
2023-03-05T15:01:30.498Z,13.43
2023-03-05T15:03:57.180Z,13.20
2023-03-05T15:06:38.124Z,14.05
2023-03-05T15:09:16.133Z,13.26
2023-03-05T15:12:02.087Z,13.85
2023-03-05T15:14:39.652Z,14.01
2023-03-05T15:17:18.884Z,14.10
2023-03-05T15:19:52.931Z,13.83
2023-03-05T15:22:35.248Z,13.63
2023-03-05T15:25:03.258Z,14.03
2023-03-05T15:27:29.881Z,13.86
2023-03-05T15:30:00.465Z,13.90
2023-03-05T15:32:33.218Z,13.74
2023-03-05T15:35:05.021Z,13.75
2023-03-05T15:37:32.407Z,13.68
2023-03-05T15:40:01.749Z,13.96
2023-03-05T15:45:15.223Z,13.68
2023-03-05T15:47:44.583Z,13.72
2023-03-05T15:50:11.867Z,13.55
2023-03-05T15:52:40.558Z,13.74
2023-03-05T15:55:19.143Z,13.75
2023-03-05T15:57:49.434Z,13.76
2023-03-05T16:00:30.729Z,13.65
2023-03-05T16:03:18.595Z,13.67
2023-03-05T16:05:45.303Z,13.66
2023-03-05T16:08:13.055Z,13.45
2023-03-05T16:10:41.054Z,13.42
2023-03-05T16:13:24.679Z,13.92
2023-03-05T16:15:55.361Z,13.94
2023-03-05T16:18:39.223Z,13.78
2023-03-05T16:21:13.001Z,13.80
2023-03-05T16:23:42.945Z,13.71
2023-03-05T16:26:13.707Z,13.81
2023-03-05T16:28:48.164Z,13.81
2023-03-05T16:31:20.064Z,13.54
2023-03-05T16:33:49.093Z,13.34
2023-03-05T16:36:49.214Z,13.81
2023-03-05T16:39:19.384Z,13.83
2023-03-05T16:41:46.302Z,13.53
2023-03-05T16:44:17.757Z,13.80
2023-03-05T16:46:54.068Z,13.94
2023-03-05T16:49:21.498Z,14.01
2023-03-05T16:51:48.655Z,13.53
2023-03-05T16:54:22.040Z,13.27
2023-03-05T16:56:48.765Z,12.86
2023-03-05T16:59:28.332Z,13.13
2023-03-05T17:02:02.815Z,13.16
2023-03-05T17:04:29.948Z,13.19
2023-03-05T17:06:56.859Z,13.29
2023-03-05T17:09:29.973Z,13.17
2023-03-05T17:12:00.628Z,13.30
2023-03-05T17:14:28.514Z,13.52
2023-03-05T17:16:58.180Z,13.46
2023-03-05T17:19:34.939Z,13.61
2023-03-05T17:22:03.021Z,13.48
2023-03-05T17:24:33.823Z,13.71
2023-03-05T17:27:02.417Z,13.63
2023-03-05T17:29:30.691Z,13.77
2023-03-05T17:32:07.084Z,13.59
2023-03-05T17:34:38.163Z,13.44
2023-03-05T17:37:06.853Z,13.70
2023-03-05T17:39:39.806Z,13.81
2023-03-05T17:42:06.626Z,13.58
2023-03-05T17:44:33.254Z,13.38
2023-03-05T17:47:01.112Z,13.63
2023-03-05T17:49:27.880Z,13.83
2023-03-05T17:51:57.463Z,13.80
2023-03-05T17:54:30.528Z,13.44
2023-03-05T17:57:00.561Z,13.62
2023-03-05T17:59:30.565Z,13.53
2023-03-05T18:02:00.197Z,13.40
2023-03-05T18:05:22.653Z,13.46
2023-03-05T18:07:24.900Z,13.44
2023-03-05T18:10:03.808Z,12.96
2023-03-05T18:12:36.617Z,13.40
2023-03-05T18:15:06.184Z,13.14
2023-03-05T18:17:36.751Z,13.33
2023-03-05T18:20:04.595Z,12.86
2023-03-05T18:22:32.499Z,13.46
2023-03-05T18:27:51.345Z,13.39
2023-03-05T18:30:32.262Z,13.29
2023-03-05T18:33:00.995Z,12.94
2023-03-05T18:35:32.287Z,13.25
2023-03-05T18:38:02.202Z,13.21
2023-03-05T18:40:32.469Z,13.12
2023-03-05T18:43:04.356Z,13.23
2023-03-05T18:45:32.423Z,12.84
2023-03-05T18:47:59.541Z,13.05
2023-03-05T18:50:28.386Z,13.22
2023-03-05T18:52:55.442Z,13.20
2023-03-05T18:55:35.779Z,13.16
2023-03-05T18:58:08.497Z,13.08
2023-03-05T19:00:42.628Z,13.09
2023-03-05T19:03:11.687Z,13.08
2023-03-05T19:05:39.576Z,13.08
2023-03-05T19:08:13.930Z,13.04
2023-03-05T19:10:50.404Z,12.94
2023-03-05T19:13:57.111Z,12.92
2023-03-05T19:16:40.490Z,12.86
2023-03-05T19:19:28.076Z,12.70
2023-03-05T19:22:04.211Z,12.96
2023-03-05T19:24:36.514Z,12.73
2023-03-05T19:27:20.045Z,12.81
2023-03-05T19:29:59.891Z,12.52
2023-03-05T19:32:35.084Z,12.73
2023-03-05T19:35:02.632Z,12.80
2023-03-05T19:37:31.209Z,12.88
2023-03-05T19:40:00.297Z,12.99
2023-03-05T19:42:30.291Z,12.72
2023-03-05T19:45:02.872Z,12.74
2023-03-05T19:47:34.420Z,12.58
2023-03-05T19:50:04.512Z,12.61
2023-03-05T19:52:31.240Z,12.41
2023-03-05T19:54:57.905Z,12.49
2023-03-05T19:57:24.524Z,12.48
2023-03-05T19:59:57.628Z,12.42
2023-03-05T20:02:24.574Z,12.46
2023-03-05T20:04:53.436Z,11.88
2023-03-05T20:07:24.042Z,12.31
2023-03-05T20:10:06.481Z,12.04
2023-03-05T20:12:40.074Z,12.31
2023-03-05T20:15:22.240Z,12.31
2023-03-05T20:17:52.010Z,12.25
2023-03-05T20:20:23.969Z,12.16
2023-03-05T20:22:50.627Z,12.17
2023-03-05T20:25:21.480Z,12.08
2023-03-05T20:27:48.490Z,11.98
2023-03-05T20:30:32.123Z,12.01
2023-03-05T20:32:58.863Z,12.06
2023-03-05T20:35:28.862Z,11.97
2023-03-05T20:38:22.456Z,12.08
2023-03-05T20:40:50.890Z,11.91
2023-03-05T20:43:24.687Z,12.02
2023-03-05T20:45:55.842Z,11.97
2023-03-05T20:48:23.318Z,11.96
2023-03-05T20:50:53.451Z,11.97
2023-03-05T20:53:20.726Z,11.72
2023-03-05T20:55:56.281Z,11.69
2023-03-05T20:58:28.002Z,11.82
2023-03-05T21:00:57.800Z,11.63
2023-03-05T21:03:25.607Z,11.84
2023-03-05T21:06:02.979Z,11.86
2023-03-05T21:08:30.056Z,11.81
2023-03-05T21:10:56.782Z,11.86
2023-03-05T21:13:33.392Z,11.65
2023-03-05T21:16:21.095Z,11.89
2023-03-05T21:18:58.942Z,11.92
2023-03-05T21:21:35.336Z,11.74
2023-03-05T21:24:05.278Z,11.82
2023-03-05T21:26:33.193Z,11.78
2023-03-05T21:29:09.250Z,11.61
2023-03-05T21:31:48.068Z,11.75
2023-03-05T21:34:19.719Z,11.80
2023-03-05T21:36:49.447Z,11.83
2023-03-05T21:39:16.393Z,11.81
2023-03-05T21:41:46.743Z,11.77
2023-03-05T21:44:20.173Z,11.83
2023-03-05T21:46:46.829Z,11.49
2023-03-05T21:49:15.108Z,11.61
2023-03-05T21:52:18.928Z,11.58
2023-03-05T21:54:46.974Z,11.50
2023-03-05T21:57:13.932Z,11.64
2023-03-05T21:59:47.422Z,11.58
2023-03-05T22:02:20.708Z,11.52
2023-03-05T22:05:06.061Z,10.98
2023-03-05T22:07:40.478Z,11.41
2023-03-05T22:10:10.809Z,11.26
2023-03-05T22:13:09.858Z,11.15
2023-03-05T22:16:09.454Z,10.72
2023-03-05T22:18:57.923Z,10.91
2023-03-05T22:21:45.794Z,10.91
2023-03-05T22:24:27.509Z,10.61
2023-03-05T22:26:59.904Z,10.60
2023-03-05T22:29:30.616Z,10.66
2023-03-05T22:32:00.321Z,10.92
2023-03-05T22:34:29.332Z,10.85
2023-03-05T22:37:10.285Z,10.81
2023-03-05T22:39:42.971Z,10.61
2023-03-05T22:42:23.760Z,10.58
2023-03-05T22:44:59.581Z,10.51
2023-03-05T22:47:31.608Z,10.48
2023-03-05T22:50:01.456Z,10.14
2023-03-05T22:52:28.368Z,10.36
2023-03-05T22:55:09.612Z,10.27
2023-03-05T22:57:36.937Z,10.11
2023-03-05T23:00:22.003Z,9.16
2023-03-05T23:02:52.804Z,10.28
2023-03-05T23:05:19.979Z,10.17
2023-03-05T23:07:50.220Z,10.34
2023-03-05T23:13:12.649Z,9.94
2023-03-05T23:15:54.731Z,10.44
2023-03-05T23:18:32.262Z,10.33
2023-03-05T23:21:23.842Z,10.21
2023-03-05T23:24:00.472Z,10.39
2023-03-05T23:26:31.333Z,10.16
2023-03-05T23:29:01.849Z,9.26
2023-03-05T23:31:40.161Z,10.32
2023-03-05T23:34:10.778Z,10.25
2023-03-05T23:39:37.623Z,10.17
2023-03-05T23:42:06.612Z,10.09
2023-03-05T23:44:36.327Z,9.83
2023-03-05T23:47:09.172Z,9.19
2023-03-05T23:49:36.554Z,9.96
2023-03-05T23:52:12.227Z,9.91
2023-03-05T23:54:45.310Z,9.77
2023-03-05T23:57:14.102Z,9.62
2023-03-05T23:59:51.516Z,9.78
